sensor_id;sensor_type;location;lat;lon;timestamp;pressure;altitude;pressure_sealevel;temperature;humidity
21547;BME280;41275;51.912;4.388;2022-09-09T00:02:28;100671.16;;;22.06;56.31
21547;BME280;41275;51.912;4.388;2022-09-09T00:07:55;100666.56;;;22.06;56.35
21547;BME280;41275;51.912;4.388;2022-09-09T00:13:24;100667.50;;;22.02;56.25
21547;BME280;41275;51.912;4.388;2022-09-09T00:19:02;100674.41;;;21.94;56.59
21547;BME280;41275;51.912;4.388;2022-09-09T00:24:51;100670.75;;;21.90;56.62
21547;BME280;41275;51.912;4.388;2022-09-09T00:35:38;100660.75;;;21.91;57.12
21547;BME280;41275;51.912;4.388;2022-09-09T00:41:23;100663.94;;;21.93;57.15
21547;BME280;41275;51.912;4.388;2022-09-09T00:47:18;100661.94;;;21.98;57.17
21547;BME280;41275;51.912;4.388;2022-09-09T01:04:48;100642.09;;;22.17;56.93
21547;BME280;41275;51.912;4.388;2022-09-09T01:10:24;100638.78;;;22.20;56.71
21547;BME280;41275;51.912;4.388;2022-09-09T01:15:47;100643.09;;;22.21;56.75
21547;BME280;41275;51.912;4.388;2022-09-09T01:26:42;100629.22;;;21.91;56.90
21547;BME280;41275;51.912;4.388;2022-09-09T01:32:38;100625.38;;;21.84;56.82
21547;BME280;41275;51.912;4.388;2022-09-09T01:38:01;100618.22;;;21.79;56.94
21547;BME280;41275;51.912;4.388;2022-09-09T01:43:23;100626.94;;;21.85;56.82
21547;BME280;41275;51.912;4.388;2022-09-09T01:48:45;100611.28;;;21.87;56.88
21547;BME280;41275;51.912;4.388;2022-09-09T01:54:07;100611.47;;;21.90;56.72
21547;BME280;41275;51.912;4.388;2022-09-09T02:00:20;100608.09;;;21.85;56.63
21547;BME280;41275;51.912;4.388;2022-09-09T02:05:40;100605.41;;;21.85;56.01
21547;BME280;41275;51.912;4.388;2022-09-09T02:11:05;100607.25;;;21.98;56.16
21547;BME280;41275;51.912;4.388;2022-09-09T02:16:55;100594.78;;;22.11;55.54
21547;BME280;41275;51.912;4.388;2022-09-09T02:22:19;100594.00;;;22.10;55.52
21547;BME280;41275;51.912;4.388;2022-09-09T02:27:43;100580.59;;;21.96;55.36
21547;BME280;41275;51.912;4.388;2022-09-09T02:33:07;100586.13;;;21.91;55.65
21547;BME280;41275;51.912;4.388;2022-09-09T02:38:34;100579.97;;;21.99;55.72
21547;BME280;41275;51.912;4.388;2022-09-09T02:43:57;100590.72;;;21.91;55.32
21547;BME280;41275;51.912;4.388;2022-09-09T02:55:08;100572.56;;;21.74;55.45
21547;BME280;41275;51.912;4.388;2022-09-09T03:00:32;100576.66;;;21.71;55.30
21547;BME280;41275;51.912;4.388;2022-09-09T03:05:54;100576.00;;;21.66;55.08
21547;BME280;41275;51.912;4.388;2022-09-09T03:11:16;100576.28;;;21.64;55.39
21547;BME280;41275;51.912;4.388;2022-09-09T03:16:37;100563.72;;;21.60;55.37
21547;BME280;41275;51.912;4.388;2022-09-09T03:21:58;100552.34;;;21.63;55.80
21547;BME280;41275;51.912;4.388;2022-09-09T03:27:21;100560.56;;;21.58;55.56
21547;BME280;41275;51.912;4.388;2022-09-09T03:32:42;100553.19;;;21.49;55.66
21547;BME280;41275;51.912;4.388;2022-09-09T03:38:03;100559.50;;;21.45;55.75
21547;BME280;41275;51.912;4.388;2022-09-09T03:43:26;100560.63;;;21.44;56.00
21547;BME280;41275;51.912;4.388;2022-09-09T03:48:47;100549.97;;;21.39;56.06
21547;BME280;41275;51.912;4.388;2022-09-09T03:54:09;100545.38;;;21.39;55.97
21547;BME280;41275;51.912;4.388;2022-09-09T03:59:31;100545.06;;;21.41;55.96
21547;BME280;41275;51.912;4.388;2022-09-09T04:04:52;100542.38;;;21.41;56.10
21547;BME280;41275;51.912;4.388;2022-09-09T04:10:13;100546.97;;;21.40;55.68
21547;BME280;41275;51.912;4.388;2022-09-09T04:15:36;100532.72;;;21.40;55.77
21547;BME280;41275;51.912;4.388;2022-09-09T04:20:57;100535.03;;;21.32;55.68
21547;BME280;41275;51.912;4.388;2022-09-09T04:26:19;100513.88;;;21.26;55.74
21547;BME280;41275;51.912;4.388;2022-09-09T04:31:41;100505.81;;;21.26;55.81
21547;BME280;41275;51.912;4.388;2022-09-09T04:37:03;100506.81;;;21.30;55.83
21547;BME280;41275;51.912;4.388;2022-09-09T04:42:24;100508.41;;;21.31;55.86
21547;BME280;41275;51.912;4.388;2022-09-09T04:47:46;100500.84;;;21.33;56.02
21547;BME280;41275;51.912;4.388;2022-09-09T04:53:07;100511.50;;;21.38;55.64
21547;BME280;41275;51.912;4.388;2022-09-09T04:58:29;100501.84;;;21.23;55.75
21547;BME280;41275;51.912;4.388;2022-09-09T05:03:50;100495.91;;;21.13;56.19
21547;BME280;41275;51.912;4.388;2022-09-09T05:09:12;100496.03;;;21.07;56.19
21547;BME280;41275;51.912;4.388;2022-09-09T05:14:34;100495.84;;;21.04;56.36
21547;BME280;41275;51.912;4.388;2022-09-09T05:19:58;100486.38;;;21.06;56.63
21547;BME280;41275;51.912;4.388;2022-09-09T05:25:19;100478.97;;;21.12;56.79
21547;BME280;41275;51.912;4.388;2022-09-09T05:30:44;100487.28;;;21.24;56.58
21547;BME280;41275;51.912;4.388;2022-09-09T05:36:07;100494.25;;;21.39;56.55
21547;BME280;41275;51.912;4.388;2022-09-09T05:41:29;100487.59;;;21.45;56.12
21547;BME280;41275;51.912;4.388;2022-09-09T05:46:51;100491.53;;;21.62;56.10
21547;BME280;41275;51.912;4.388;2022-09-09T05:52:12;100498.59;;;21.80;55.65
21547;BME280;41275;51.912;4.388;2022-09-09T05:57:33;100506.41;;;21.90;55.27
21547;BME280;41275;51.912;4.388;2022-09-09T06:02:55;100505.84;;;22.11;54.81
21547;BME280;41275;51.912;4.388;2022-09-09T06:08:16;100502.25;;;22.15;54.62
21547;BME280;41275;51.912;4.388;2022-09-09T06:13:40;100503.72;;;22.21;54.21
21547;BME280;41275;51.912;4.388;2022-09-09T06:19:02;100506.00;;;22.37;54.37
21547;BME280;41275;51.912;4.388;2022-09-09T06:24:24;100497.28;;;22.48;53.59
21547;BME280;41275;51.912;4.388;2022-09-09T06:29:45;100509.03;;;22.52;53.46
21547;BME280;41275;51.912;4.388;2022-09-09T06:35:07;100512.03;;;22.60;53.22
21547;BME280;41275;51.912;4.388;2022-09-09T06:40:28;100508.09;;;22.74;52.93
21547;BME280;41275;51.912;4.388;2022-09-09T06:46:04;100498.13;;;22.75;52.88
21547;BME280;41275;51.912;4.388;2022-09-09T06:51:34;100496.84;;;22.90;52.93
21547;BME280;41275;51.912;4.388;2022-09-09T06:56:56;100501.16;;;22.91;52.52
21547;BME280;41275;51.912;4.388;2022-09-09T07:02:17;100509.09;;;22.87;52.61
21547;BME280;41275;51.912;4.388;2022-09-09T07:07:41;100506.53;;;22.82;52.18
21547;BME280;41275;51.912;4.388;2022-09-09T07:13:02;100498.94;;;22.75;52.72
21547;BME280;41275;51.912;4.388;2022-09-09T07:18:28;100487.81;;;22.68;52.43
21547;BME280;41275;51.912;4.388;2022-09-09T07:23:49;100495.88;;;22.60;52.95
21547;BME280;41275;51.912;4.388;2022-09-09T07:29:10;100487.31;;;22.66;52.89
21547;BME280;41275;51.912;4.388;2022-09-09T07:34:34;100491.47;;;22.81;52.71
21547;BME280;41275;51.912;4.388;2022-09-09T07:39:56;100499.59;;;23.07;52.36
21547;BME280;41275;51.912;4.388;2022-09-09T07:45:17;100501.34;;;23.12;52.05
21547;BME280;41275;51.912;4.388;2022-09-09T07:50:39;100504.84;;;23.12;52.11
21547;BME280;41275;51.912;4.388;2022-09-09T07:56:11;100498.81;;;23.15;51.69
21547;BME280;41275;51.912;4.388;2022-09-09T08:01:40;100507.03;;;23.10;51.97
21547;BME280;41275;51.912;4.388;2022-09-09T08:07:02;100497.69;;;23.08;51.87
21547;BME280;41275;51.912;4.388;2022-09-09T08:12:24;100493.09;;;23.08;51.66
21547;BME280;41275;51.912;4.388;2022-09-09T08:17:45;100510.22;;;23.12;51.89
21547;BME280;41275;51.912;4.388;2022-09-09T08:23:06;100505.47;;;23.18;51.77
21547;BME280;41275;51.912;4.388;2022-09-09T08:28:28;100508.94;;;23.36;51.49
21547;BME280;41275;51.912;4.388;2022-09-09T08:33:50;100511.19;;;23.42;51.20
21547;BME280;41275;51.912;4.388;2022-09-09T08:39:16;100505.41;;;23.52;50.80
21547;BME280;41275;51.912;4.388;2022-09-09T08:50:28;100514.97;;;23.67;50.53
21547;BME280;41275;51.912;4.388;2022-09-09T09:13:33;100520.81;;;23.61;50.50
21547;BME280;41275;51.912;4.388;2022-09-09T09:18:58;100533.97;;;23.88;49.72
21547;BME280;41275;51.912;4.388;2022-09-09T09:24:23;100527.28;;;24.33;50.14
21547;BME280;41275;51.912;4.388;2022-09-09T09:29:48;100527.88;;;24.68;49.82
21547;BME280;41275;51.912;4.388;2022-09-09T09:35:12;100513.91;;;24.87;49.85
21547;BME280;41275;51.912;4.388;2022-09-09T09:40:34;100521.91;;;24.83;49.99
21547;BME280;41275;51.912;4.388;2022-09-09T09:45:56;100516.81;;;24.61;49.82
21547;BME280;41275;51.912;4.388;2022-09-09T09:51:22;100513.47;;;24.25;50.09
21547;BME280;41275;51.912;4.388;2022-09-09T09:56:44;100518.13;;;23.78;51.54
21547;BME280;41275;51.912;4.388;2022-09-09T10:02:19;100519.81;;;23.91;52.48
21547;BME280;41275;51.912;4.388;2022-09-09T10:07:41;100521.91;;;24.24;52.27
21547;BME280;41275;51.912;4.388;2022-09-09T10:13:11;100523.78;;;24.41;51.99
21547;BME280;41275;51.912;4.388;2022-09-09T10:18:52;100521.00;;;25.00;51.51
21547;BME280;41275;51.912;4.388;2022-09-09T10:30:09;100514.88;;;25.03;50.46
21547;BME280;41275;51.912;4.388;2022-09-09T10:51:58;100519.00;;;26.46;47.75
21547;BME280;41275;51.912;4.388;2022-09-09T10:57:29;100518.31;;;27.13;46.33
21547;BME280;41275;51.912;4.388;2022-09-09T11:02:59;100520.75;;;27.75;45.30
21547;BME280;41275;51.912;4.388;2022-09-09T11:08:23;100509.06;;;27.74;44.17
21547;BME280;41275;51.912;4.388;2022-09-09T11:19:34;100504.53;;;26.29;45.76
21547;BME280;41275;51.912;4.388;2022-09-09T11:25:10;100507.41;;;25.75;47.04
21547;BME280;41275;51.912;4.388;2022-09-09T11:41:36;100532.47;;;24.08;50.74
21547;BME280;41275;51.912;4.388;2022-09-09T11:46:58;100539.56;;;23.57;52.91
21547;BME280;41275;51.912;4.388;2022-09-09T11:52:37;100535.31;;;23.47;54.13
21547;BME280;41275;51.912;4.388;2022-09-09T11:58:03;100541.19;;;23.41;54.69
21547;BME280;41275;51.912;4.388;2022-09-09T12:03:59;100536.25;;;23.34;55.16
21547;BME280;41275;51.912;4.388;2022-09-09T12:09:30;100545.31;;;23.21;55.33
21547;BME280;41275;51.912;4.388;2022-09-09T12:15:18;100548.66;;;23.35;55.90
21547;BME280;41275;51.912;4.388;2022-09-09T12:20:55;100546.88;;;23.57;55.50
21547;BME280;41275;51.912;4.388;2022-09-09T12:32:22;100546.06;;;23.82;54.60
21547;BME280;41275;51.912;4.388;2022-09-09T12:37:53;100547.41;;;24.14;54.74
21547;BME280;41275;51.912;4.388;2022-09-09T12:43:42;100552.50;;;24.54;54.33
21547;BME280;41275;51.912;4.388;2022-09-09T12:54:55;100557.25;;;25.29;51.60
21547;BME280;41275;51.912;4.388;2022-09-09T13:00:19;100550.47;;;25.56;50.78
21547;BME280;41275;51.912;4.388;2022-09-09T13:05:41;100548.91;;;26.25;48.74
21547;BME280;41275;51.912;4.388;2022-09-09T13:11:13;100550.53;;;26.38;48.56
21547;BME280;41275;51.912;4.388;2022-09-09T13:16:36;100556.94;;;26.21;48.32
21547;BME280;41275;51.912;4.388;2022-09-09T13:21:57;100561.22;;;25.64;49.07
21547;BME280;41275;51.912;4.388;2022-09-09T13:27:33;100577.47;;;25.31;50.06
21547;BME280;41275;51.912;4.388;2022-09-09T13:38:53;100589.84;;;24.22;52.33
21547;BME280;41275;51.912;4.388;2022-09-09T13:44:25;100581.38;;;23.68;53.97
21547;BME280;41275;51.912;4.388;2022-09-09T13:49:57;100562.94;;;23.53;54.96
21547;BME280;41275;51.912;4.388;2022-09-09T13:55:19;100564.03;;;23.61;54.99
21547;BME280;41275;51.912;4.388;2022-09-09T14:00:42;100561.03;;;23.71;54.15
21547;BME280;41275;51.912;4.388;2022-09-09T14:06:04;100557.31;;;24.02;53.79
21547;BME280;41275;51.912;4.388;2022-09-09T14:11:26;100571.78;;;24.35;53.70
21547;BME280;41275;51.912;4.388;2022-09-09T14:16:47;100566.22;;;24.49;52.81
21547;BME280;41275;51.912;4.388;2022-09-09T14:22:08;100567.44;;;24.81;52.02
21547;BME280;41275;51.912;4.388;2022-09-09T14:27:29;100569.28;;;26.18;49.48
21547;BME280;41275;51.912;4.388;2022-09-09T14:32:51;100568.00;;;28.81;44.17
21547;BME280;41275;51.912;4.388;2022-09-09T14:38:12;100573.94;;;30.29;39.99
21547;BME280;41275;51.912;4.388;2022-09-09T14:43:33;100578.56;;;31.05;38.19
21547;BME280;41275;51.912;4.388;2022-09-09T14:48:54;100588.41;;;32.25;35.99
21547;BME280;41275;51.912;4.388;2022-09-09T14:54:18;100575.59;;;31.17;35.96
21547;BME280;41275;51.912;4.388;2022-09-09T14:59:40;100585.69;;;30.83;37.38
21547;BME280;41275;51.912;4.388;2022-09-09T15:05:01;100578.78;;;31.57;35.89
21547;BME280;41275;51.912;4.388;2022-09-09T15:10:22;100591.75;;;32.00;34.95
21547;BME280;41275;51.912;4.388;2022-09-09T15:15:44;100601.63;;;32.12;34.34
21547;BME280;41275;51.912;4.388;2022-09-09T15:21:05;100596.25;;;29.89;37.77
21547;BME280;41275;51.912;4.388;2022-09-09T15:26:27;100590.84;;;28.29;40.64
21547;BME280;41275;51.912;4.388;2022-09-09T15:31:48;100590.47;;;27.27;43.18
21547;BME280;41275;51.912;4.388;2022-09-09T15:37:10;100589.53;;;26.70;44.48
21547;BME280;41275;51.912;4.388;2022-09-09T15:42:34;100588.94;;;26.28;45.90
21547;BME280;41275;51.912;4.388;2022-09-09T15:47:55;100594.97;;;25.88;47.23
21547;BME280;41275;51.912;4.388;2022-09-09T15:53:16;100597.91;;;25.62;48.07
21547;BME280;41275;51.912;4.388;2022-09-09T15:58:37;100591.88;;;25.23;48.07
21547;BME280;41275;51.912;4.388;2022-09-09T16:03:59;100590.41;;;24.75;49.63
21547;BME280;41275;51.912;4.388;2022-09-09T16:09:21;100605.94;;;24.57;50.17
21547;BME280;41275;51.912;4.388;2022-09-09T16:14:42;100602.81;;;24.38;50.56
21547;BME280;41275;51.912;4.388;2022-09-09T16:20:04;100609.66;;;24.44;50.43
21547;BME280;41275;51.912;4.388;2022-09-09T16:25:28;100614.13;;;24.40;50.89
21547;BME280;41275;51.912;4.388;2022-09-09T16:30:49;100612.22;;;24.40;51.96
21547;BME280;41275;51.912;4.388;2022-09-09T16:36:13;100617.41;;;24.54;51.50
21547;BME280;41275;51.912;4.388;2022-09-09T16:41:35;100618.88;;;24.81;51.08
21547;BME280;41275;51.912;4.388;2022-09-09T16:46:57;100618.22;;;24.84;50.24
21547;BME280;41275;51.912;4.388;2022-09-09T16:52:18;100627.75;;;24.61;50.52
21547;BME280;41275;51.912;4.388;2022-09-09T16:57:39;100630.78;;;24.51;50.70
21547;BME280;41275;51.912;4.388;2022-09-09T17:03:02;100640.19;;;24.36;50.97
21547;BME280;41275;51.912;4.388;2022-09-09T17:08:24;100642.44;;;24.34;51.40
21547;BME280;41275;51.912;4.388;2022-09-09T17:13:46;100656.13;;;24.37;51.42
21547;BME280;41275;51.912;4.388;2022-09-09T17:19:08;100649.47;;;24.26;50.50
21547;BME280;41275;51.912;4.388;2022-09-09T17:24:29;100655.06;;;24.12;50.32
21547;BME280;41275;51.912;4.388;2022-09-09T17:29:51;100660.97;;;24.06;50.25
21547;BME280;41275;51.912;4.388;2022-09-09T17:35:12;100674.47;;;24.06;50.50
21547;BME280;41275;51.912;4.388;2022-09-09T17:40:33;100667.81;;;24.03;50.45
21547;BME280;41275;51.912;4.388;2022-09-09T17:45:54;100672.13;;;23.87;51.06
21547;BME280;41275;51.912;4.388;2022-09-09T17:51:19;100687.84;;;23.76;51.84
21547;BME280;41275;51.912;4.388;2022-09-09T17:56:41;100685.63;;;23.69;51.88
21547;BME280;41275;51.912;4.388;2022-09-09T18:07:25;100696.38;;;23.43;51.92
21547;BME280;41275;51.912;4.388;2022-09-09T18:12:46;100704.47;;;23.35;52.27
21547;BME280;41275;51.912;4.388;2022-09-09T18:18:07;100702.22;;;23.28;52.82
21547;BME280;41275;51.912;4.388;2022-09-09T18:23:29;100714.44;;;23.17;53.12
21547;BME280;41275;51.912;4.388;2022-09-09T18:28:53;100703.13;;;23.06;52.90
21547;BME280;41275;51.912;4.388;2022-09-09T18:34:16;100710.28;;;23.11;53.07
21547;BME280;41275;51.912;4.388;2022-09-09T18:39:38;100710.13;;;23.07;52.61
21547;BME280;41275;51.912;4.388;2022-09-09T18:44:59;100719.97;;;23.12;52.94
21547;BME280;41275;51.912;4.388;2022-09-09T18:50:20;100725.88;;;23.22;53.06
21547;BME280;41275;51.912;4.388;2022-09-09T18:55:41;100730.06;;;23.46;52.75
21547;BME280;41275;51.912;4.388;2022-09-09T19:01:03;100736.72;;;23.40;53.23
21547;BME280;41275;51.912;4.388;2022-09-09T19:06:29;100743.06;;;23.35;53.66
21547;BME280;41275;51.912;4.388;2022-09-09T19:11:50;100757.19;;;23.23;54.67
21547;BME280;41275;51.912;4.388;2022-09-09T19:17:12;100760.91;;;23.05;55.46
21547;BME280;41275;51.912;4.388;2022-09-09T19:22:33;100765.72;;;22.86;55.92
21547;BME280;41275;51.912;4.388;2022-09-09T19:27:54;100766.91;;;22.71;55.85
21547;BME280;41275;51.912;4.388;2022-09-09T19:33:15;100768.25;;;22.60;55.57
21547;BME280;41275;51.912;4.388;2022-09-09T19:38:37;100769.56;;;22.62;55.30
21547;BME280;41275;51.912;4.388;2022-09-09T19:44:03;100765.28;;;22.61;55.15
21547;BME280;41275;51.912;4.388;2022-09-09T19:49:26;100773.22;;;22.66;55.08
21547;BME280;41275;51.912;4.388;2022-09-09T19:54:47;100775.50;;;22.73;55.10
21547;BME280;41275;51.912;4.388;2022-09-09T20:00:08;100793.78;;;22.76;54.83
21547;BME280;41275;51.912;4.388;2022-09-09T20:05:30;100795.81;;;22.79;54.75
21547;BME280;41275;51.912;4.388;2022-09-09T20:10:52;100789.38;;;22.89;54.81
21547;BME280;41275;51.912;4.388;2022-09-09T20:16:19;100786.75;;;22.97;55.21
21547;BME280;41275;51.912;4.388;2022-09-09T20:21:43;100787.25;;;22.99;55.15
21547;BME280;41275;51.912;4.388;2022-09-09T20:27:05;100790.13;;;23.03;55.48
21547;BME280;41275;51.912;4.388;2022-09-09T20:32:26;100797.28;;;23.08;55.68
21547;BME280;41275;51.912;4.388;2022-09-09T20:37:48;100805.81;;;23.01;56.30
21547;BME280;41275;51.912;4.388;2022-09-09T20:43:10;100812.16;;;22.96;56.11
21547;BME280;41275;51.912;4.388;2022-09-09T20:48:33;100806.31;;;22.81;56.50
21547;BME280;41275;51.912;4.388;2022-09-09T20:53:55;100797.13;;;22.82;56.66
21547;BME280;41275;51.912;4.388;2022-09-09T20:59:22;100793.81;;;22.85;56.55
21547;BME280;41275;51.912;4.388;2022-09-09T21:04:43;100789.97;;;22.77;56.81
21547;BME280;41275;51.912;4.388;2022-09-09T21:10:05;100792.03;;;22.80;56.85
21547;BME280;41275;51.912;4.388;2022-09-09T21:15:27;100789.72;;;22.87;56.71
21547;BME280;41275;51.912;4.388;2022-09-09T21:20:49;100791.97;;;22.94;56.63
21547;BME280;41275;51.912;4.388;2022-09-09T21:26:10;100790.38;;;22.93;56.81
21547;BME280;41275;51.912;4.388;2022-09-09T21:31:31;100776.91;;;22.93;56.97
21547;BME280;41275;51.912;4.388;2022-09-09T21:36:52;100791.19;;;22.93;57.08
21547;BME280;41275;51.912;4.388;2022-09-09T21:42:13;100788.09;;;22.86;57.03
21547;BME280;41275;51.912;4.388;2022-09-09T21:47:35;100789.34;;;22.80;57.27
21547;BME280;41275;51.912;4.388;2022-09-09T21:52:56;100791.06;;;22.76;57.59
21547;BME280;41275;51.912;4.388;2022-09-09T21:58:17;100788.19;;;22.72;57.65
21547;BME280;41275;51.912;4.388;2022-09-09T22:03:39;100784.16;;;22.61;57.74
21547;BME280;41275;51.912;4.388;2022-09-09T22:09:02;100786.81;;;22.52;58.02
21547;BME280;41275;51.912;4.388;2022-09-09T22:14:23;100774.63;;;22.33;58.05
21547;BME280;41275;51.912;4.388;2022-09-09T22:19:45;100783.59;;;22.28;58.51
21547;BME280;41275;51.912;4.388;2022-09-09T22:25:06;100799.16;;;22.31;58.87
21547;BME280;41275;51.912;4.388;2022-09-09T22:30:28;100817.63;;;22.38;58.97
21547;BME280;41275;51.912;4.388;2022-09-09T22:35:49;100816.38;;;22.44;59.06
21547;BME280;41275;51.912;4.388;2022-09-09T22:41:10;100814.97;;;22.46;58.97
21547;BME280;41275;51.912;4.388;2022-09-09T22:46:32;100822.78;;;22.48;59.44
21547;BME280;41275;51.912;4.388;2022-09-09T22:51:54;100819.88;;;22.22;59.30
21547;BME280;41275;51.912;4.388;2022-09-09T22:57:15;100824.78;;;22.06;59.67
21547;BME280;41275;51.912;4.388;2022-09-09T23:02:36;100822.19;;;22.01;60.13
21547;BME280;41275;51.912;4.388;2022-09-09T23:07:59;100810.78;;;22.04;60.15
21547;BME280;41275;51.912;4.388;2022-09-09T23:13:21;100792.97;;;21.94;60.24
21547;BME280;41275;51.912;4.388;2022-09-09T23:18:43;100810.03;;;21.90;60.14
21547;BME280;41275;51.912;4.388;2022-09-09T23:24:06;100810.03;;;21.90;60.24
21547;BME280;41275;51.912;4.388;2022-09-09T23:29:27;100809.56;;;21.74;60.18
21547;BME280;41275;51.912;4.388;2022-09-09T23:34:49;100810.06;;;21.76;59.95
21547;BME280;41275;51.912;4.388;2022-09-09T23:40:10;100801.97;;;21.76;59.96
21547;BME280;41275;51.912;4.388;2022-09-09T23:45:31;100806.38;;;21.86;60.15
21547;BME280;41275;51.912;4.388;2022-09-09T23:50:53;100798.09;;;21.82;59.84
21547;BME280;41275;51.912;4.388;2022-09-09T23:56:16;100803.94;;;21.98;59.92
